sensor_id;sensor_type;location;lat;lon;timestamp;temperature;humidity
49901;DHT22;35789;48.414;12.768;2023-03-26T00:00:00;6.4;99.9
49901;DHT22;35789;48.414;12.768;2023-03-26T00:05:00;6.3;99.9
49901;DHT22;35789;48.414;12.768;2023-03-26T00:10:00;6.3;99.9
49901;DHT22;35789;48.414;12.768;2023-03-26T00:15:00;6.3;99.9
49901;DHT22;35789;48.414;12.768;2023-03-26T00:20:00;6.4;99.9
49901;DHT22;35789;48.414;12.768;2023-03-26T00:25:00;6.5;99.9
49901;DHT22;35789;48.414;12.768;2023-03-26T00:30:03;6.5;99.9
49901;DHT22;35789;48.414;12.768;2023-03-26T00:35:00;6.5;99.9
49901;DHT22;35789;48.414;12.768;2023-03-26T00:40:00;6.5;99.9
49901;DHT22;35789;48.414;12.768;2023-03-26T00:45:00;6.5;99.9
49901;DHT22;35789;48.414;12.768;2023-03-26T00:50:00;6.5;99.9
49901;DHT22;35789;48.414;12.768;2023-03-26T00:55:00;6.4;99.9
49901;DHT22;35789;48.414;12.768;2023-03-26T01:00:00;6.4;99.9
49901;DHT22;35789;48.414;12.768;2023-03-26T01:10:00;6.4;99.9
49901;DHT22;35789;48.414;12.768;2023-03-26T01:15:00;6.4;99.9
49901;DHT22;35789;48.414;12.768;2023-03-26T01:20:02;6.4;99.9
49901;DHT22;35789;48.414;12.768;2023-03-26T01:25:00;6.4;99.9
49901;DHT22;35789;48.414;12.768;2023-03-26T01:30:02;6.4;99.9
49901;DHT22;35789;48.414;12.768;2023-03-26T01:35:04;6.4;99.9
49901;DHT22;35789;48.414;12.768;2023-03-26T01:40:02;6.4;99.9
49901;DHT22;35789;48.414;12.768;2023-03-26T01:45:03;6.4;99.9
49901;DHT22;35789;48.414;12.768;2023-03-26T01:50:00;6.4;99.9
49901;DHT22;35789;48.414;12.768;2023-03-26T01:55:00;6.5;99.9
49901;DHT22;35789;48.414;12.768;2023-03-26T02:00:02;6.5;99.9
49901;DHT22;35789;48.414;12.768;2023-03-26T02:05:01;6.5;99.9
49901;DHT22;35789;48.414;12.768;2023-03-26T02:10:02;6.5;99.9
49901;DHT22;35789;48.414;12.768;2023-03-26T02:15:01;6.4;99.9
49901;DHT22;35789;48.414;12.768;2023-03-26T02:20:00;6.4;99.9
49901;DHT22;35789;48.414;12.768;2023-03-26T02:25:00;6.3;99.9
49901;DHT22;35789;48.414;12.768;2023-03-26T02:30:00;6.3;99.9
49901;DHT22;35789;48.414;12.768;2023-03-26T02:35:00;6.3;99.9
49901;DHT22;35789;48.414;12.768;2023-03-26T02:40:00;6.2;99.9
49901;DHT22;35789;48.414;12.768;2023-03-26T02:45:00;6.3;99.9
49901;DHT22;35789;48.414;12.768;2023-03-26T02:50:00;6.3;99.9
49901;DHT22;35789;48.414;12.768;2023-03-26T02:55:00;6.3;99.9
49901;DHT22;35789;48.414;12.768;2023-03-26T03:00:00;6.3;99.9
49901;DHT22;35789;48.414;12.768;2023-03-26T03:05:00;6.2;99.9
49901;DHT22;35789;48.414;12.768;2023-03-26T03:10:00;6.1;99.9
49901;DHT22;35789;48.414;12.768;2023-03-26T03:15:00;6.0;99.9
49901;DHT22;35789;48.414;12.768;2023-03-26T03:20:00;5.9;99.9
49901;DHT22;35789;48.414;12.768;2023-03-26T03:25:00;5.9;99.9
49901;DHT22;35789;48.414;12.768;2023-03-26T03:30:00;6.0;99.9
49901;DHT22;35789;48.414;12.768;2023-03-26T03:35:00;6.0;99.9
49901;DHT22;35789;48.414;12.768;2023-03-26T03:40:00;5.7;99.9
49901;DHT22;35789;48.414;12.768;2023-03-26T03:45:00;5.6;99.9
49901;DHT22;35789;48.414;12.768;2023-03-26T03:50:00;5.6;99.9
49901;DHT22;35789;48.414;12.768;2023-03-26T03:55:00;5.7;99.9
49901;DHT22;35789;48.414;12.768;2023-03-26T04:00:00;5.7;99.9
49901;DHT22;35789;48.414;12.768;2023-03-26T04:05:00;5.7;99.9
49901;DHT22;35789;48.414;12.768;2023-03-26T04:10:00;5.7;99.9
49901;DHT22;35789;48.414;12.768;2023-03-26T04:15:00;5.7;99.9
49901;DHT22;35789;48.414;12.768;2023-03-26T04:20:00;5.7;99.9
49901;DHT22;35789;48.414;12.768;2023-03-26T04:25:00;5.6;99.9
49901;DHT22;35789;48.414;12.768;2023-03-26T04:30:00;5.4;99.9
49901;DHT22;35789;48.414;12.768;2023-03-26T04:35:00;5.4;99.9
49901;DHT22;35789;48.414;12.768;2023-03-26T04:40:00;5.3;99.9
49901;DHT22;35789;48.414;12.768;2023-03-26T04:45:00;5.3;99.9
49901;DHT22;35789;48.414;12.768;2023-03-26T04:50:00;5.3;99.9
49901;DHT22;35789;48.414;12.768;2023-03-26T04:55:00;5.4;99.9
49901;DHT22;35789;48.414;12.768;2023-03-26T05:00:00;5.4;99.9
49901;DHT22;35789;48.414;12.768;2023-03-26T05:05:00;5.3;99.9
49901;DHT22;35789;48.414;12.768;2023-03-26T05:10:00;5.3;99.9
49901;DHT22;35789;48.414;12.768;2023-03-26T05:15:00;5.3;99.9
49901;DHT22;35789;48.414;12.768;2023-03-26T05:20:00;5.4;99.9
49901;DHT22;35789;48.414;12.768;2023-03-26T05:25:00;5.5;99.9
49901;DHT22;35789;48.414;12.768;2023-03-26T05:30:00;5.4;99.9
49901;DHT22;35789;48.414;12.768;2023-03-26T05:35:00;5.5;99.9
49901;DHT22;35789;48.414;12.768;2023-03-26T05:40:00;5.5;99.9
49901;DHT22;35789;48.414;12.768;2023-03-26T05:45:00;5.6;99.9
49901;DHT22;35789;48.414;12.768;2023-03-26T05:50:00;5.8;99.9
49901;DHT22;35789;48.414;12.768;2023-03-26T05:55:00;5.9;99.9
49901;DHT22;35789;48.414;12.768;2023-03-26T06:00:00;6.0;99.9
49901;DHT22;35789;48.414;12.768;2023-03-26T06:05:00;6.0;99.9
49901;DHT22;35789;48.414;12.768;2023-03-26T06:10:00;6.1;99.9
49901;DHT22;35789;48.414;12.768;2023-03-26T06:15:00;6.2;99.9
49901;DHT22;35789;48.414;12.768;2023-03-26T06:20:00;6.2;99.9
49901;DHT22;35789;48.414;12.768;2023-03-26T06:25:00;6.4;99.9
49901;DHT22;35789;48.414;12.768;2023-03-26T06:30:00;6.5;99.9
49901;DHT22;35789;48.414;12.768;2023-03-26T06:35:00;6.6;99.9
49901;DHT22;35789;48.414;12.768;2023-03-26T06:40:00;6.6;99.9
49901;DHT22;35789;48.414;12.768;2023-03-26T06:45:00;6.7;99.9
49901;DHT22;35789;48.414;12.768;2023-03-26T06:50:00;6.7;99.9
49901;DHT22;35789;48.414;12.768;2023-03-26T06:55:00;6.8;99.9
49901;DHT22;35789;48.414;12.768;2023-03-26T07:00:00;7.0;99.9
49901;DHT22;35789;48.414;12.768;2023-03-26T07:05:00;7.0;99.9
49901;DHT22;35789;48.414;12.768;2023-03-26T07:10:00;7.1;99.9
49901;DHT22;35789;48.414;12.768;2023-03-26T07:15:00;7.1;99.9
49901;DHT22;35789;48.414;12.768;2023-03-26T07:20:00;7.2;99.9
49901;DHT22;35789;48.414;12.768;2023-03-26T07:25:00;7.2;99.9
49901;DHT22;35789;48.414;12.768;2023-03-26T07:30:02;7.2;99.9
49901;DHT22;35789;48.414;12.768;2023-03-26T07:35:01;7.3;99.9
49901;DHT22;35789;48.414;12.768;2023-03-26T07:40:01;7.3;99.9
49901;DHT22;35789;48.414;12.768;2023-03-26T07:45:02;7.4;99.9
49901;DHT22;35789;48.414;12.768;2023-03-26T07:50:00;7.5;99.9
49901;DHT22;35789;48.414;12.768;2023-03-26T07:55:02;7.6;99.9
49901;DHT22;35789;48.414;12.768;2023-03-26T08:00:02;7.8;99.9
49901;DHT22;35789;48.414;12.768;2023-03-26T08:05:03;7.8;99.9
49901;DHT22;35789;48.414;12.768;2023-03-26T08:10:02;7.9;99.9
49901;DHT22;35789;48.414;12.768;2023-03-26T08:15:02;7.9;99.9
49901;DHT22;35789;48.414;12.768;2023-03-26T08:20:03;8.0;99.9
49901;DHT22;35789;48.414;12.768;2023-03-26T08:25:09;8.0;99.9
49901;DHT22;35789;48.414;12.768;2023-03-26T08:30:02;8.0;99.9
49901;DHT22;35789;48.414;12.768;2023-03-26T08:35:00;8.0;99.9
49901;DHT22;35789;48.414;12.768;2023-03-26T08:40:00;8.1;99.9
49901;DHT22;35789;48.414;12.768;2023-03-26T08:45:08;8.2;99.9
49901;DHT22;35789;48.414;12.768;2023-03-26T08:55:06;8.4;99.9
49901;DHT22;35789;48.414;12.768;2023-03-26T09:00:02;8.5;99.9
49901;DHT22;35789;48.414;12.768;2023-03-26T09:10:06;8.7;99.9
49901;DHT22;35789;48.414;12.768;2023-03-26T09:25:08;8.6;99.9
49901;DHT22;35789;48.414;12.768;2023-03-26T09:35:09;8.5;99.9
49901;DHT22;35789;48.414;12.768;2023-03-26T09:40:03;8.6;99.9
49901;DHT22;35789;48.414;12.768;2023-03-26T09:55:05;8.7;99.9
49901;DHT22;35789;48.414;12.768;2023-03-26T10:00:04;8.9;99.9
49901;DHT22;35789;48.414;12.768;2023-03-26T10:05:02;9.1;99.9
49901;DHT22;35789;48.414;12.768;2023-03-26T10:10:00;9.1;99.9
49901;DHT22;35789;48.414;12.768;2023-03-26T10:15:03;9.1;99.9
49901;DHT22;35789;48.414;12.768;2023-03-26T10:20:03;9.0;99.9
49901;DHT22;35789;48.414;12.768;2023-03-26T10:25:09;8.9;99.9
49901;DHT22;35789;48.414;12.768;2023-03-26T10:30:06;8.8;99.9
49901;DHT22;35789;48.414;12.768;2023-03-26T10:35:04;8.7;99.9
49901;DHT22;35789;48.414;12.768;2023-03-26T10:40:10;8.7;99.9
49901;DHT22;35789;48.414;12.768;2023-03-26T10:45:10;8.5;99.9
49901;DHT22;35789;48.414;12.768;2023-03-26T10:55:03;8.1;99.9
49901;DHT22;35789;48.414;12.768;2023-03-26T11:00:04;8.1;99.9
49901;DHT22;35789;48.414;12.768;2023-03-26T11:05:03;8.2;99.9
49901;DHT22;35789;48.414;12.768;2023-03-26T11:10:01;8.1;99.9
49901;DHT22;35789;48.414;12.768;2023-03-26T11:15:05;8.0;99.9
49901;DHT22;35789;48.414;12.768;2023-03-26T11:20:02;8.0;99.9
49901;DHT22;35789;48.414;12.768;2023-03-26T11:25:07;8.0;99.9
49901;DHT22;35789;48.414;12.768;2023-03-26T11:30:02;8.0;99.9
49901;DHT22;35789;48.414;12.768;2023-03-26T11:35:01;8.1;99.9
49901;DHT22;35789;48.414;12.768;2023-03-26T11:40:01;8.2;99.9
49901;DHT22;35789;48.414;12.768;2023-03-26T11:45:01;8.2;99.9
49901;DHT22;35789;48.414;12.768;2023-03-26T11:50:00;8.3;99.9
49901;DHT22;35789;48.414;12.768;2023-03-26T11:55:00;8.3;99.9
49901;DHT22;35789;48.414;12.768;2023-03-26T12:00:01;8.3;99.9
49901;DHT22;35789;48.414;12.768;2023-03-26T12:10:00;8.5;99.9
49901;DHT22;35789;48.414;12.768;2023-03-26T12:20:00;8.5;99.9
49901;DHT22;35789;48.414;12.768;2023-03-26T12:25:01;8.5;99.9
49901;DHT22;35789;48.414;12.768;2023-03-26T12:30:08;8.6;99.9
49901;DHT22;35789;48.414;12.768;2023-03-26T12:35:03;8.4;99.9
49901;DHT22;35789;48.414;12.768;2023-03-26T12:40:06;8.3;99.9
49901;DHT22;35789;48.414;12.768;2023-03-26T12:45:00;8.3;99.9
49901;DHT22;35789;48.414;12.768;2023-03-26T12:50:00;8.2;99.9
49901;DHT22;35789;48.414;12.768;2023-03-26T12:55:02;8.1;99.9
49901;DHT22;35789;48.414;12.768;2023-03-26T13:00:02;8.1;99.9
49901;DHT22;35789;48.414;12.768;2023-03-26T13:05:06;8.1;99.9
49901;DHT22;35789;48.414;12.768;2023-03-26T13:10:06;8.2;99.9
49901;DHT22;35789;48.414;12.768;2023-03-26T13:15:04;8.4;99.9
49901;DHT22;35789;48.414;12.768;2023-03-26T13:20:02;8.6;99.9
49901;DHT22;35789;48.414;12.768;2023-03-26T13:25:01;8.6;99.9
49901;DHT22;35789;48.414;12.768;2023-03-26T13:30:02;8.8;99.9
49901;DHT22;35789;48.414;12.768;2023-03-26T13:35:06;8.9;99.9
49901;DHT22;35789;48.414;12.768;2023-03-26T13:40:02;8.9;99.9
49901;DHT22;35789;48.414;12.768;2023-03-26T13:45:01;8.9;99.9
49901;DHT22;35789;48.414;12.768;2023-03-26T13:50:00;8.9;99.9
49901;DHT22;35789;48.414;12.768;2023-03-26T13:55:03;8.9;99.9
49901;DHT22;35789;48.414;12.768;2023-03-26T14:00:01;9.0;99.9
49901;DHT22;35789;48.414;12.768;2023-03-26T14:05:01;9.0;99.9
49901;DHT22;35789;48.414;12.768;2023-03-26T14:10:00;9.0;99.9
49901;DHT22;35789;48.414;12.768;2023-03-26T14:15:00;9.0;99.9
49901;DHT22;35789;48.414;12.768;2023-03-26T14:25:05;9.0;99.9
49901;DHT22;35789;48.414;12.768;2023-03-26T14:30:08;8.8;99.9
49901;DHT22;35789;48.414;12.768;2023-03-26T14:35:06;8.6;99.9
49901;DHT22;35789;48.414;12.768;2023-03-26T14:40:06;8.3;99.9
49901;DHT22;35789;48.414;12.768;2023-03-26T14:55:01;8.0;99.9
49901;DHT22;35789;48.414;12.768;2023-03-26T15:15:09;8.1;99.9
49901;DHT22;35789;48.414;12.768;2023-03-26T15:20:11;8.2;99.9
49901;DHT22;35789;48.414;12.768;2023-03-26T15:25:09;8.2;99.9
49901;DHT22;35789;48.414;12.768;2023-03-26T15:30:06;8.1;99.9
49901;DHT22;35789;48.414;12.768;2023-03-26T15:45:10;8.0;99.9
49901;DHT22;35789;48.414;12.768;2023-03-26T15:50:04;7.9;99.9
49901;DHT22;35789;48.414;12.768;2023-03-26T15:55:02;7.9;99.9
49901;DHT22;35789;48.414;12.768;2023-03-26T16:00:04;8.0;99.9
49901;DHT22;35789;48.414;12.768;2023-03-26T16:05:01;8.0;99.9
49901;DHT22;35789;48.414;12.768;2023-03-26T16:10:08;8.0;99.9
49901;DHT22;35789;48.414;12.768;2023-03-26T16:20:12;8.0;99.9
49901;DHT22;35789;48.414;12.768;2023-03-26T16:35:00;7.8;99.9
49901;DHT22;35789;48.414;12.768;2023-03-26T16:50:02;7.6;99.9
49901;DHT22;35789;48.414;12.768;2023-03-26T16:55:02;7.5;99.9
49901;DHT22;35789;48.414;12.768;2023-03-26T17:00:04;7.5;99.9
49901;DHT22;35789;48.414;12.768;2023-03-26T17:05:04;7.5;99.9
49901;DHT22;35789;48.414;12.768;2023-03-26T17:10:02;7.4;99.9
49901;DHT22;35789;48.414;12.768;2023-03-26T17:15:03;7.4;99.9
49901;DHT22;35789;48.414;12.768;2023-03-26T17:20:01;7.3;99.9
49901;DHT22;35789;48.414;12.768;2023-03-26T17:25:01;7.3;99.9
49901;DHT22;35789;48.414;12.768;2023-03-26T17:30:01;7.2;99.9
49901;DHT22;35789;48.414;12.768;2023-03-26T17:35:00;7.1;99.9
49901;DHT22;35789;48.414;12.768;2023-03-26T17:45:00;7.1;99.9
49901;DHT22;35789;48.414;12.768;2023-03-26T17:50:02;7.1;99.9
49901;DHT22;35789;48.414;12.768;2023-03-26T17:55:00;7.0;99.9
49901;DHT22;35789;48.414;12.768;2023-03-26T18:00:00;7.0;99.9
49901;DHT22;35789;48.414;12.768;2023-03-26T18:05:00;6.9;99.9
49901;DHT22;35789;48.414;12.768;2023-03-26T18:10:11;6.8;99.9
49901;DHT22;35789;48.414;12.768;2023-03-26T18:15:12;6.7;99.9
49901;DHT22;35789;48.414;12.768;2023-03-26T18:20:01;6.7;99.9
49901;DHT22;35789;48.414;12.768;2023-03-26T18:25:00;6.7;99.9
49901;DHT22;35789;48.414;12.768;2023-03-26T18:30:01;6.7;99.9
49901;DHT22;35789;48.414;12.768;2023-03-26T18:35:00;6.6;99.9
49901;DHT22;35789;48.414;12.768;2023-03-26T18:40:00;6.5;99.9
49901;DHT22;35789;48.414;12.768;2023-03-26T18:45:00;6.6;99.9
49901;DHT22;35789;48.414;12.768;2023-03-26T18:50:00;6.5;99.9
49901;DHT22;35789;48.414;12.768;2023-03-26T18:55:00;6.5;99.9
49901;DHT22;35789;48.414;12.768;2023-03-26T19:00:04;6.6;99.9
49901;DHT22;35789;48.414;12.768;2023-03-26T19:05:00;6.6;99.9
49901;DHT22;35789;48.414;12.768;2023-03-26T19:10:00;6.7;99.9
49901;DHT22;35789;48.414;12.768;2023-03-26T19:15:01;6.7;99.9
49901;DHT22;35789;48.414;12.768;2023-03-26T19:20:00;6.7;99.9
49901;DHT22;35789;48.414;12.768;2023-03-26T19:25:00;6.6;99.9
49901;DHT22;35789;48.414;12.768;2023-03-26T19:30:00;6.7;99.9
49901;DHT22;35789;48.414;12.768;2023-03-26T19:35:00;6.8;99.9
49901;DHT22;35789;48.414;12.768;2023-03-26T19:40:01;7.0;99.9
49901;DHT22;35789;48.414;12.768;2023-03-26T19:45:01;7.1;99.9
49901;DHT22;35789;48.414;12.768;2023-03-26T19:50:06;7.1;99.9
49901;DHT22;35789;48.414;12.768;2023-03-26T19:55:01;7.1;99.9
49901;DHT22;35789;48.414;12.768;2023-03-26T20:00:00;7.1;99.9
49901;DHT22;35789;48.414;12.768;2023-03-26T20:05:00;7.1;99.9
49901;DHT22;35789;48.414;12.768;2023-03-26T20:10:00;7.1;99.9
49901;DHT22;35789;48.414;12.768;2023-03-26T20:15:00;7.1;99.9
49901;DHT22;35789;48.414;12.768;2023-03-26T20:20:00;7.0;99.9
49901;DHT22;35789;48.414;12.768;2023-03-26T20:25:00;6.9;99.9
49901;DHT22;35789;48.414;12.768;2023-03-26T20:30:00;6.8;99.9
49901;DHT22;35789;48.414;12.768;2023-03-26T20:35:00;6.8;99.9
49901;DHT22;35789;48.414;12.768;2023-03-26T20:40:00;6.7;99.9
49901;DHT22;35789;48.414;12.768;2023-03-26T20:45:00;6.7;99.9
49901;DHT22;35789;48.414;12.768;2023-03-26T20:50:00;6.7;99.9
49901;DHT22;35789;48.414;12.768;2023-03-26T20:55:00;6.7;99.9
49901;DHT22;35789;48.414;12.768;2023-03-26T21:00:00;6.7;99.9
49901;DHT22;35789;48.414;12.768;2023-03-26T21:05:00;6.7;99.9
49901;DHT22;35789;48.414;12.768;2023-03-26T21:10:00;6.7;99.9
49901;DHT22;35789;48.414;12.768;2023-03-26T21:15:00;6.7;99.9
49901;DHT22;35789;48.414;12.768;2023-03-26T21:20:00;6.6;99.9
49901;DHT22;35789;48.414;12.768;2023-03-26T21:25:02;6.6;99.9
49901;DHT22;35789;48.414;12.768;2023-03-26T21:30:00;6.5;99.9
49901;DHT22;35789;48.414;12.768;2023-03-26T21:35:00;6.4;99.9
49901;DHT22;35789;48.414;12.768;2023-03-26T21:40:00;6.4;99.9
49901;DHT22;35789;48.414;12.768;2023-03-26T21:45:00;6.4;99.9
49901;DHT22;35789;48.414;12.768;2023-03-26T21:50:00;6.4;99.9
49901;DHT22;35789;48.414;12.768;2023-03-26T21:55:00;6.4;99.9
49901;DHT22;35789;48.414;12.768;2023-03-26T22:00:03;6.4;99.9
49901;DHT22;35789;48.414;12.768;2023-03-26T22:05:01;6.4;99.9
49901;DHT22;35789;48.414;12.768;2023-03-26T22:10:00;6.4;99.9
49901;DHT22;35789;48.414;12.768;2023-03-26T22:15:00;6.4;99.9
49901;DHT22;35789;48.414;12.768;2023-03-26T22:20:00;6.4;99.9
49901;DHT22;35789;48.414;12.768;2023-03-26T22:25:00;6.4;99.9
49901;DHT22;35789;48.414;12.768;2023-03-26T22:30:00;6.4;99.9
49901;DHT22;35789;48.414;12.768;2023-03-26T22:35:00;6.4;99.9
49901;DHT22;35789;48.414;12.768;2023-03-26T22:40:00;6.4;99.9
49901;DHT22;35789;48.414;12.768;2023-03-26T22:45:00;6.5;99.9
49901;DHT22;35789;48.414;12.768;2023-03-26T22:50:00;6.4;99.9
49901;DHT22;35789;48.414;12.768;2023-03-26T22:55:00;6.4;99.9
49901;DHT22;35789;48.414;12.768;2023-03-26T23:00:00;6.4;99.9
49901;DHT22;35789;48.414;12.768;2023-03-26T23:05:00;6.4;99.9
49901;DHT22;35789;48.414;12.768;2023-03-26T23:10:00;6.4;99.9
49901;DHT22;35789;48.414;12.768;2023-03-26T23:15:00;6.4;99.9
49901;DHT22;35789;48.414;12.768;2023-03-26T23:20:00;6.4;99.9
49901;DHT22;35789;48.414;12.768;2023-03-26T23:25:00;6.4;99.9
49901;DHT22;35789;48.414;12.768;2023-03-26T23:30:00;6.4;99.9
49901;DHT22;35789;48.414;12.768;2023-03-26T23:35:00;6.3;99.9
49901;DHT22;35789;48.414;12.768;2023-03-26T23:40:00;6.4;99.9
49901;DHT22;35789;48.414;12.768;2023-03-26T23:45:00;6.3;99.9
49901;DHT22;35789;48.414;12.768;2023-03-26T23:50:00;6.3;99.9
49901;DHT22;35789;48.414;12.768;2023-03-26T23:55:00;6.3;99.9
